Time;durP1;ratioP1;P1;durP2;ratioP2;P2;SDS_P1;SDS_P2;PMS_P1;PMS_P2;Temp;Humidity;BMP_temperature;BMP_pressure;BME280_temperature;BME280_humidity;BME280_pressure;Samples;Min_cycle;Max_cycle;Signal;HPM_P1;HPM_P2
2022/05/07 00:02:05;;;;;;;3.75;2.55;;;;;;;13.39;nan;95516.06;5013649;28;20306;-71
2022/05/07 00:04:32;;;;;;;3.30;3.00;;;;;;;13.31;nan;95517.25;5014330;28;20204;-72
2022/05/07 00:07:00;;;;;;;3.67;2.70;;;;;;;13.22;nan;95532.00;5013013;28;20241;-71
2022/05/07 00:09:26;;;;;;;3.30;3.08;;;;;;;13.17;nan;95525.41;5014616;28;20660;-71
2022/05/07 00:11:53;;;;;;;4.30;3.20;;;;;;;13.16;nan;95508.44;5014036;28;20227;-72
2022/05/07 00:14:20;;;;;;;3.22;3.03;;;;;;;13.08;nan;95521.44;5013991;28;20203;-72
2022/05/07 00:19:32;;;;;;;3.90;2.78;;;;;;;13.02;nan;95510.63;5014508;28;20587;-72
2022/05/07 00:22:00;;;;;;;3.25;2.42;;;;;;;13.06;nan;95501.97;5012335;28;20231;-71
2022/05/07 00:24:27;;;;;;;3.60;2.83;;;;;;;13.01;nan;95508.97;5014089;28;20238;-72
2022/05/07 00:26:54;;;;;;;4.25;2.50;;;;;;;13.12;nan;95512.78;5013324;28;20559;-73
2022/05/07 00:29:21;;;;;;;2.45;2.25;;;;;;;13.12;nan;95506.84;5015473;28;20231;-70
2022/05/07 00:31:48;;;;;;;3.90;2.58;;;;;;;13.08;nan;95502.75;5015261;28;20208;-71
2022/05/07 00:34:14;;;;;;;5.60;2.75;;;;;;;13.04;nan;95508.84;5015482;28;20302;-71
2022/05/07 00:36:41;;;;;;;6.10;2.72;;;;;;;13.14;nan;95505.06;5014821;28;20214;-73
2022/05/07 00:39:10;;;;;;;3.67;2.88;;;;;;;13.11;nan;95500.09;5015439;28;20208;-72
2022/05/07 00:41:39;;;;;;;2.72;2.53;;;;;;;13.08;nan;95495.94;5015581;28;20682;-72
2022/05/07 00:44:06;;;;;;;4.40;2.65;;;;;;;13.15;nan;95501.63;5015780;28;20203;-72
2022/05/07 00:46:33;;;;;;;4.88;2.70;;;;;;;13.01;nan;95496.19;5015212;28;20242;-74
2022/05/07 00:49:00;;;;;;;4.70;2.70;;;;;;;13.12;nan;95502.56;5016478;28;20249;-72
2022/05/07 00:51:35;;;;;;;8.63;3.38;;;;;;;13.15;nan;95501.63;5014924;28;20196;-72
2022/05/07 00:54:07;;;;;;;3.00;2.70;;;;;;;13.35;nan;95508.59;5015852;28;20204;-73
2022/05/07 00:56:36;;;;;;;3.25;2.13;;;;;;;13.21;nan;95501.44;5014785;28;20210;-70
2022/05/07 00:59:04;;;;;;;2.50;2.30;;;;;;;13.31;nan;95507.88;5015886;28;20192;-74
2022/05/07 01:01:31;;;;;;;9.45;2.83;;;;;;;13.27;nan;95493.56;5013757;28;20211;-71
2022/05/07 01:03:58;;;;;;;6.53;3.33;;;;;;;13.27;nan;95504.59;5014813;28;20295;-72
2022/05/07 01:06:24;;;;;;;3.75;2.25;;;;;;;13.37;nan;95501.69;5015433;28;20211;-72
2022/05/07 01:08:51;;;;;;;7.00;2.45;;;;;;;13.31;nan;95502.78;5015657;28;20987;-71
2022/05/07 01:11:19;;;;;;;2.38;2.17;;;;;;;13.13;nan;95488.09;5014882;28;20257;-71
2022/05/07 01:13:48;;;;;;;2.50;2.30;;;;;;;13.14;nan;95507.63;5015142;28;20200;-71
2022/05/07 01:16:15;;;;;;;3.63;2.72;;;;;;;13.00;nan;95497.09;5014010;28;20320;-72
2022/05/07 01:18:43;;;;;;;3.08;2.78;;;;;;;12.93;nan;95502.41;5014894;28;20204;-71
2022/05/07 01:21:12;;;;;;;2.72;2.50;;;;;;;12.91;nan;95499.06;5013476;28;20753;-71
2022/05/07 01:23:40;;;;;;;3.20;2.50;;;;;;;12.86;nan;95505.25;5014191;28;20235;-71
2022/05/07 01:26:07;;;;;;;3.63;2.67;;;;;;;12.76;nan;95504.72;5014238;28;20303;-72
2022/05/07 01:28:34;;;;;;;3.88;3.05;;;;;;;12.63;nan;95498.38;5015668;28;20269;-72
2022/05/07 01:31:01;;;;;;;2.55;2.35;;;;;;;12.70;nan;95515.13;5015013;28;20211;-71
2022/05/07 01:33:28;;;;;;;3.67;2.67;;;;;;;12.68;nan;95501.59;5014997;28;20332;-72
2022/05/07 01:35:55;;;;;;;4.60;2.90;;;;;;;12.95;nan;95515.94;5014551;28;20253;-74
2022/05/07 01:38:23;;;;;;;5.18;2.80;;;;;;;13.05;nan;95513.06;5016996;28;20265;-71
2022/05/07 01:40:49;;;;;;;10.48;3.05;;;;;;;12.97;nan;95512.50;5014516;28;20200;-71
2022/05/07 01:43:16;;;;;;;2.78;2.42;;;;;;;12.99;nan;95511.56;5014201;28;20336;-72
2022/05/07 01:45:43;;;;;;;3.10;2.67;;;;;;;12.95;nan;95505.72;5014814;28;20257;-74
2022/05/07 01:48:11;;;;;;;4.65;2.95;;;;;;;13.01;nan;95504.69;5013940;28;20211;-72
2022/05/07 01:50:39;;;;;;;3.55;3.10;;;;;;;12.91;nan;95511.81;5015233;28;20302;-72
2022/05/07 01:53:07;;;;;;;2.75;2.55;;;;;;;12.83;nan;95510.47;5016442;28;20207;-74
2022/05/07 01:55:36;;;;;;;2.80;2.35;;;;;;;12.76;nan;95497.06;5014985;28;20207;-72
2022/05/07 01:58:03;;;;;;;5.60;2.78;;;;;;;12.49;nan;95492.94;5014158;28;20203;-73
2022/05/07 02:00:31;;;;;;;2.20;1.90;;;;;;;12.64;nan;95504.31;5013950;28;20239;-72
2022/05/07 02:02:58;;;;;;;2.67;2.47;;;;;;;12.54;nan;95502.09;5013641;28;20247;-74
2022/05/07 02:05:26;;;;;;;3.75;2.38;;;;;;;12.70;nan;95504.09;5014419;28;20192;-72
2022/05/07 02:07:53;;;;;;;4.55;2.72;;;;;;;12.58;nan;95500.28;5014021;28;20749;-71
2022/05/07 02:10:20;;;;;;;3.20;2.47;;;;;;;12.53;nan;95502.13;5015568;28;20667;-72
2022/05/07 02:12:49;;;;;;;3.05;2.40;;;;;;;12.60;nan;95501.88;5014289;28;20277;-72
2022/05/07 02:15:16;;;;;;;5.25;2.60;;;;;;;12.51;nan;95503.91;5014094;28;20737;-73
2022/05/07 02:17:43;;;;;;;3.22;2.90;;;;;;;12.52;nan;95501.31;5014500;28;20262;-73
2022/05/07 02:20:10;;;;;;;3.30;2.00;;;;;;;12.39;nan;95504.31;5013649;28;20223;-73
2022/05/07 02:22:37;;;;;;;2.85;2.65;;;;;;;12.27;nan;95508.13;5013771;28;20333;-72
2022/05/07 02:25:05;;;;;;;4.22;2.42;;;;;;;12.30;nan;95497.00;5014004;28;20317;-71
2022/05/07 02:27:32;;;;;;;2.60;2.10;;;;;;;12.23;nan;95494.63;5012992;28;20227;-73
2022/05/07 02:30:00;;;;;;;2.50;2.22;;;;;;;12.25;nan;95497.97;5013616;28;21321;-72
2022/05/07 02:32:26;;;;;;;4.97;2.75;;;;;;;12.34;nan;95501.09;5014654;28;20281;-73
2022/05/07 02:34:53;;;;;;;5.68;2.83;;;;;;;12.17;nan;95510.13;5013831;28;20593;-72
2022/05/07 02:37:20;;;;;;;7.75;2.28;;;;;;;12.15;nan;95503.41;5013555;28;20200;-72
2022/05/07 02:39:48;;;;;;;2.63;2.40;;;;;;;12.11;nan;95510.34;5013830;28;20207;-72
2022/05/07 02:45:01;;;;;;;2.58;2.17;;;;;;;12.22;nan;95510.81;5015580;28;20215;-71
2022/05/07 02:47:28;;;;;;;5.43;3.25;;;;;;;12.24;nan;95509.03;5017174;28;20211;-72
2022/05/07 02:49:55;;;;;;;3.05;2.85;;;;;;;12.35;nan;95516.34;5017359;28;20663;-72
2022/05/07 02:52:22;;;;;;;4.65;2.95;;;;;;;12.27;nan;95510.66;5017476;28;20310;-72
2022/05/07 02:54:49;;;;;;;6.55;3.17;;;;;;;12.16;nan;95518.66;5016668;28;20206;-72
2022/05/07 02:57:16;;;;;;;4.13;3.53;;;;;;;12.07;nan;95524.06;5016848;28;20578;-72
2022/05/07 02:59:43;;;;;;;8.05;3.55;;;;;;;12.06;nan;95517.28;5018015;28;20575;-71
2022/05/07 03:02:11;;;;;;;6.68;3.50;;;;;;;11.96;nan;95520.16;5016717;28;20326;-72
2022/05/07 03:04:38;;;;;;;3.80;3.50;;;;;;;11.91;nan;95533.88;5017843;28;20224;-72
2022/05/07 03:07:05;;;;;;;2.70;2.50;;;;;;;12.04;nan;95524.16;5017452;28;20294;-72
2022/05/07 03:09:31;;;;;;;5.65;3.08;;;;;;;11.92;nan;95524.50;5017273;28;20207;-72
2022/05/07 03:11:58;;;;;;;3.38;3.13;;;;;;;11.85;nan;95517.97;5015970;28;20294;-72
2022/05/07 03:14:26;;;;;;;6.95;3.47;;;;;;;11.89;nan;95520.34;5014530;28;20203;-72
2022/05/07 03:16:52;;;;;;;3.75;3.45;;;;;;;11.83;nan;95527.38;5015760;28;20226;-70
2022/05/07 03:19:20;;;;;;;6.25;3.47;;;;;;;11.83;nan;95523.13;5016493;28;20768;-73
2022/05/07 03:21:47;;;;;;;3.42;3.03;;;;;;;11.77;nan;95519.91;5017518;28;20289;-75
2022/05/07 03:24:14;;;;;;;5.82;3.28;;;;;;;11.71;nan;95515.81;5018197;28;20238;-73
2022/05/07 03:26:41;;;;;;;4.47;2.97;;;;;;;11.65;nan;95515.16;5017188;28;20346;-73
2022/05/07 03:29:08;;;;;;;5.72;3.35;;;;;;;11.56;nan;95519.66;5016896;28;20630;-72
2022/05/07 03:31:35;;;;;;;3.55;3.08;;;;;;;11.56;nan;95514.56;5015978;28;20668;-72
2022/05/07 03:34:02;;;;;;;5.25;3.22;;;;;;;11.56;nan;95522.22;5013963;28;20753;-72
2022/05/07 03:36:30;;;;;;;3.67;2.92;;;;;;;11.68;nan;95513.34;5013632;28;20901;-72
2022/05/07 03:38:57;;;;;;;8.63;3.42;;;;;;;11.75;nan;95511.47;5012293;28;20192;-72
2022/05/07 03:41:24;;;;;;;4.13;3.10;;;;;;;11.61;nan;95513.59;5012223;28;20352;-73
2022/05/07 03:43:50;;;;;;;7.50;3.25;;;;;;;11.75;nan;95511.47;5014154;28;20309;-72
2022/05/07 03:46:17;;;;;;;4.82;3.70;;;;;;;11.44;nan;95512.38;5015640;28;20289;-72
2022/05/07 03:48:44;;;;;;;3.50;3.20;;;;;;;11.51;nan;95518.13;5014604;28;20899;-72
2022/05/07 03:51:10;;;;;;;8.90;3.42;;;;;;;11.68;nan;95515.06;5016466;28;20227;-72
2022/05/07 03:53:38;;;;;;;4.40;3.33;;;;;;;11.77;nan;95525.84;5016357;28;20200;-74
2022/05/07 03:56:06;;;;;;;3.28;3.08;;;;;;;11.65;nan;95528.72;5016697;28;20208;-71
2022/05/07 03:58:33;;;;;;;6.95;3.80;;;;;;;12.05;nan;95530.91;5016787;28;20200;-74
2022/05/07 04:01:00;;;;;;;10.43;4.03;;;;;;;12.30;nan;95525.84;5017340;28;20743;-72
2022/05/07 04:03:28;;;;;;;4.85;4.45;;;;;;;12.40;nan;95531.47;5015891;28;21829;-75
2022/05/07 04:05:56;;;;;;;3.85;3.35;;;;;;;12.58;nan;95535.97;5016770;28;20679;-71
2022/05/07 04:08:24;;;;;;;3.72;3.35;;;;;;;12.88;nan;95542.53;5016484;28;20598;-71
2022/05/07 04:10:52;;;;;;;5.75;4.05;;;;;;;13.11;nan;95535.81;5017623;28;20294;-71
2022/05/07 04:13:19;;;;;;;4.03;3.45;;;;;;;13.31;nan;95546.16;5016615;28;20281;-71
2022/05/07 04:15:46;;;;;;;4.97;3.92;;;;;;;13.51;nan;95548.81;5017540;28;20235;-71
2022/05/07 04:18:13;;;;;;;4.60;3.78;;;;;;;13.54;nan;95541.03;5016408;28;20208;-71
2022/05/07 04:20:40;;;;;;;5.68;3.40;;;;;;;13.66;nan;95551.69;5016506;28;22050;-74
2022/05/07 04:23:07;;;;;;;10.30;3.60;;;;;;;13.43;nan;95543.16;5015604;28;20293;-72
2022/05/07 04:25:34;;;;;;;5.65;3.58;;;;;;;13.88;nan;95549.97;5016624;28;20263;-72
2022/05/07 04:28:02;;;;;;;6.65;3.40;;;;;;;14.11;nan;95534.56;5017712;28;20658;-74
2022/05/07 04:30:29;;;;;;;5.28;3.63;;;;;;;14.36;nan;95546.34;5016825;28;20208;-72
2022/05/07 04:32:56;;;;;;;3.97;3.65;;;;;;;14.18;nan;95553.03;5016503;28;20212;-70
2022/05/07 04:35:23;;;;;;;8.55;4.00;;;;;;;14.21;nan;95551.19;5016857;28;20282;-70
2022/05/07 04:37:49;;;;;;;8.85;4.05;;;;;;;14.13;nan;95554.94;5016732;28;20199;-72
2022/05/07 04:40:16;;;;;;;8.68;4.32;;;;;;;14.10;nan;95547.44;5017801;28;20200;-72
2022/05/07 04:42:43;;;;;;;3.97;3.40;;;;;;;14.01;nan;95535.84;5017119;28;20772;-73
2022/05/07 04:45:13;;;;;;;9.27;3.42;;;;;;;14.00;nan;95534.16;5016767;28;20267;-70
2022/05/07 04:47:40;;;;;;;6.55;3.47;;;;;;;13.97;nan;95544.50;5015847;28;20668;-71
2022/05/07 04:50:07;;;;;;;6.78;3.75;;;;;;;13.92;nan;95551.50;5017208;28;20254;-73
2022/05/07 04:52:34;;;;;;;7.05;3.70;;;;;;;14.29;nan;95538.94;5015829;28;20210;-71
2022/05/07 04:55:02;;;;;;;3.83;3.45;;;;;;;14.60;nan;95537.69;5016512;28;20208;-70
2022/05/07 04:57:29;;;;;;;5.57;4.18;;;;;;;15.14;nan;95536.25;5015858;28;20202;-70
2022/05/07 04:59:56;;;;;;;3.55;3.25;;;;;;;16.19;nan;95545.09;5015389;28;20208;-70
2022/05/07 05:02:25;;;;;;;4.93;3.42;;;;;;;16.71;nan;95534.06;5016614;28;20235;-72
2022/05/07 05:04:51;;;;;;;9.63;4.35;;;;;;;16.88;nan;95549.44;5016744;28;20726;-70
2022/05/07 05:07:19;;;;;;;4.07;3.67;;;;;;;16.59;nan;95538.00;5014646;28;20249;-73
2022/05/07 05:09:45;;;;;;;4.20;3.80;;;;;;;16.44;nan;95537.03;5015315;28;20643;-71
2022/05/07 05:12:12;;;;;;;7.20;3.97;;;;;;;16.41;nan;95539.75;5015546;28;20228;-71
2022/05/07 05:17:25;;;;;;;3.85;2.97;;;;;;;16.94;nan;95544.81;5015714;28;20425;-71
2022/05/07 05:19:51;;;;;;;6.45;3.60;;;;;;;17.38;nan;95546.00;5016008;28;20870;-71
2022/05/07 05:22:18;;;;;;;4.25;3.90;;;;;;;18.13;nan;95546.22;5015720;28;20234;-71
2022/05/07 05:24:45;;;;;;;5.05;4.65;;;;;;;17.84;nan;95542.66;5015651;28;20234;-71
2022/05/07 05:27:12;;;;;;;3.75;3.42;;;;;;;19.77;nan;95542.63;5014990;28;20253;-72
2022/05/07 05:29:38;;;;;;;4.53;3.78;;;;;;;19.72;nan;95542.09;5014370;28;20203;-72
2022/05/07 05:32:06;;;;;;;5.00;3.90;;;;;;;20.06;nan;95539.03;5012746;28;20285;-72
2022/05/07 05:34:35;;;;;;;4.75;4.32;;;;;;;20.31;nan;95533.97;5013668;28;20204;-74
2022/05/07 05:37:01;;;;;;;5.63;4.05;;;;;;;20.57;nan;95534.06;5012619;28;20240;-72
2022/05/07 05:39:28;;;;;;;3.95;3.60;;;;;;;20.25;nan;95534.38;5013174;28;20207;-72
2022/05/07 05:41:55;;;;;;;4.15;3.65;;;;;;;20.73;nan;95539.91;5015002;28;20192;-72
2022/05/07 05:44:21;;;;;;;4.95;3.42;;;;;;;20.86;nan;95551.06;5016021;28;20231;-73
2022/05/07 05:46:48;;;;;;;5.80;4.28;;;;;;;20.42;nan;95535.06;5014979;28;20273;-71
2022/05/07 05:49:15;;;;;;;4.78;3.70;;;;;;;20.59;nan;95537.38;5015555;28;20281;-74
2022/05/07 05:51:43;;;;;;;6.68;3.97;;;;;;;21.17;nan;95533.50;5014837;28;20207;-72
2022/05/07 05:54:10;;;;;;;4.57;4.18;;;;;;;22.12;nan;95538.94;5014937;28;20281;-72
2022/05/07 05:56:37;;;;;;;4.15;3.75;;;;;;;21.43;nan;95547.28;5016314;28;20314;-71
2022/05/07 05:59:04;;;;;;;4.03;3.72;;;;;;;20.79;nan;95549.81;5014950;28;20596;-73
2022/05/07 06:01:30;;;;;;;7.05;4.05;;;;;;;20.67;nan;95545.47;5015593;28;20207;-71
2022/05/07 06:03:57;;;;;;;5.40;3.70;;;;;;;21.71;nan;95547.84;5016343;28;20345;-72
2022/05/07 06:06:24;;;;;;;4.03;3.45;;;;;;;21.87;nan;95544.19;5013926;28;20231;-72
2022/05/07 06:08:52;;;;;;;4.47;3.53;;;;;;;21.67;nan;95551.59;5016749;28;20634;-74
2022/05/07 06:11:19;;;;;;;5.50;4.60;;;;;;;21.12;nan;95545.91;5015062;28;20281;-74
2022/05/07 06:13:47;;;;;;;4.60;4.30;;;;;;;21.29;nan;95543.03;5016209;28;20929;-75
2022/05/07 06:16:14;;;;;;;6.93;4.40;;;;;;;22.07;nan;95533.28;5014150;28;20237;-73
2022/05/07 06:18:41;;;;;;;11.18;4.30;;;;;;;22.63;nan;95544.72;5015688;28;20199;-74
2022/05/07 06:21:08;;;;;;;4.53;4.13;;;;;;;23.33;nan;95533.44;5019028;28;20207;-72
2022/05/07 06:23:34;;;;;;;6.10;3.60;;;;;;;22.27;nan;95544.81;5018855;28;20235;-74
2022/05/07 06:28:47;;;;;;;7.97;4.40;;;;;;;23.11;nan;95536.84;5018638;28;20261;-72
2022/05/07 06:31:13;;;;;;;4.80;4.15;;;;;;;22.75;nan;95537.81;5018491;28;20195;-72
2022/05/07 06:33:40;;;;;;;6.75;4.40;;;;;;;21.58;nan;95543.63;5019437;28;20249;-73
2022/05/07 06:36:07;;;;;;;9.43;4.10;;;;;;;21.11;nan;95541.66;5018735;28;20289;-70
2022/05/07 06:38:34;;;;;;;4.47;4.00;;;;;;;21.28;nan;95536.25;5018849;28;20265;-76
2022/05/07 06:41:04;;;;;;;8.32;4.10;;;;;;;22.05;nan;95537.72;5018644;28;20914;-74
2022/05/07 06:43:31;;;;;;;4.28;3.97;;;;;;;21.51;nan;95537.25;5018557;28;21282;-72
2022/05/07 06:45:58;;;;;;;5.72;4.22;;;;;;;21.87;nan;95541.59;5019869;28;20253;-74
2022/05/07 06:48:25;;;;;;;4.55;4.15;;;;;;;22.14;nan;95541.44;5018264;28;20317;-71
2022/05/07 06:50:52;;;;;;;6.97;4.55;;;;;;;22.22;nan;95542.53;5018865;28;20301;-72
2022/05/07 06:53:19;;;;;;;6.35;4.32;;;;;;;20.80;nan;95541.13;5018084;28;20571;-73
2022/05/07 06:55:59;;;;;;;4.50;4.10;;;;;;;20.97;nan;95542.63;5019776;28;20204;-73
2022/05/07 06:58:29;;;;;;;4.72;3.88;;;;;;;21.10;nan;95538.25;5017579;28;20223;-72
2022/05/07 07:00:57;;;;;;;9.13;4.25;;;;;;;21.21;nan;95524.66;5017728;28;20207;-72
2022/05/07 07:03:25;;;;;;;4.78;4.45;;;;;;;21.55;nan;95538.66;5018218;28;20302;-75
2022/05/07 07:05:54;;;;;;;4.22;3.80;;;;;;;21.27;nan;95529.41;5017981;28;20341;-72
2022/05/07 07:08:20;;;;;;;6.22;4.82;;;;;;;21.72;nan;95518.47;5018426;28;20639;-72
2022/05/07 07:10:48;;;;;;;4.47;4.07;;;;;;;21.38;nan;95527.72;5017533;28;22677;-75
2022/05/07 07:13:16;;;;;;;6.70;5.07;;;;;;;21.75;nan;95514.00;5019203;28;20219;-72
2022/05/07 07:15:44;;;;;;;8.80;4.55;;;;;;;20.94;nan;95517.81;5017832;28;20607;-75
2022/05/07 07:18:11;;;;;;;9.52;4.32;;;;;;;20.83;nan;95506.50;5017283;28;20216;-72
2022/05/07 07:20:40;;;;;;;6.85;3.70;;;;;;;21.13;nan;95511.38;5015645;28;20208;-72
2022/05/07 07:23:07;;;;;;;7.90;3.60;;;;;;;21.16;nan;95506.00;5016525;28;20267;-74
2022/05/07 07:25:33;;;;;;;6.50;4.07;;;;;;;20.57;nan;95508.25;5014010;28;20829;-73
2022/05/07 07:28:00;;;;;;;4.15;3.85;;;;;;;20.23;nan;95502.69;5016505;28;20753;-73
2022/05/07 07:30:27;;;;;;;6.07;5.15;;;;;;;19.90;nan;95502.25;5014138;28;20300;-74
2022/05/07 07:32:55;;;;;;;8.73;5.32;;;;;;;19.78;nan;95503.03;5016679;28;20199;-73
2022/05/07 07:35:22;;;;;;;5.93;5.38;;;;;;;19.30;nan;95511.06;5017951;28;20691;-75
2022/05/07 07:37:49;;;;;;;6.97;5.30;;;;;;;19.19;nan;95510.06;5018038;28;20629;-73
2022/05/07 07:40:16;;;;;;;5.93;4.15;;;;;;;19.72;nan;95508.56;5017859;28;20615;-71
2022/05/07 07:42:43;;;;;;;5.32;4.03;;;;;;;20.49;nan;95501.03;5020836;28;20204;-71
2022/05/07 07:48:01;;;;;;;4.55;4.07;;;;;;;19.58;nan;95507.66;5018764;28;20694;-70
2022/05/07 07:50:31;;;;;;;4.93;4.25;;;;;;;19.23;nan;95502.06;5017461;28;20200;-73
2022/05/07 07:53:01;;;;;;;6.55;3.60;;;;;;;19.48;nan;95509.13;5017388;28;20199;-72
2022/05/07 07:55:28;;;;;;;5.88;4.53;;;;;;;19.63;nan;95505.63;5016755;28;20343;-72
2022/05/07 07:57:56;;;;;;;7.93;3.65;;;;;;;19.69;nan;95499.25;5017129;28;20302;-73
2022/05/07 08:00:23;;;;;;;4.38;3.83;;;;;;;19.55;nan;95487.22;5017043;28;20235;-73
2022/05/07 08:02:51;;;;;;;7.43;4.03;;;;;;;19.39;nan;95491.63;5017038;28;20866;-72
2022/05/07 08:05:22;;;;;;;9.70;3.67;;;;;;;19.48;nan;95493.66;5016520;28;20231;-73
2022/05/07 08:13:17;;;;;;;5.78;4.03;;;;;;;19.05;nan;95499.78;5017011;28;20210;-74
2022/05/07 08:15:45;;;;;;;7.10;4.38;;;;;;;18.51;nan;95494.34;5015075;28;20286;-73
2022/05/07 08:18:12;;;;;;;3.60;3.30;;;;;;;18.75;nan;95507.56;5017895;28;21588;-74
2022/05/07 08:20:42;;;;;;;4.78;4.13;;;;;;;18.65;nan;95502.94;5016347;28;20579;-72
2022/05/07 08:23:09;;;;;;;4.13;3.72;;;;;;;18.50;nan;95506.38;5017822;28;20679;-73
2022/05/07 08:25:36;;;;;;;8.35;3.88;;;;;;;18.95;nan;95491.75;5017288;28;20312;-72
2022/05/07 08:28:03;;;;;;;5.35;3.72;;;;;;;19.34;nan;95496.25;5017171;28;20222;-72
2022/05/07 08:30:30;;;;;;;9.00;5.82;;;;;;;19.36;nan;95496.97;5017718;28;20329;-72
2022/05/07 08:32:57;;;;;;;3.55;3.28;;;;;;;20.03;nan;95500.56;5016786;28;20281;-72
2022/05/07 08:35:24;;;;;;;7.82;4.43;;;;;;;20.19;nan;95497.81;5016358;28;20267;-73
2022/05/07 08:37:53;;;;;;;3.88;3.58;;;;;;;20.04;nan;95499.63;5016119;28;20616;-74
2022/05/07 08:40:20;;;;;;;5.35;3.97;;;;;;;19.97;nan;95500.94;5016420;28;20203;-75
2022/05/07 08:42:47;;;;;;;6.15;3.90;;;;;;;20.20;nan;95489.97;5016967;28;20204;-72
2022/05/07 08:45:15;;;;;;;12.52;4.00;;;;;;;20.43;nan;95490.25;5015971;28;20232;-72
2022/05/07 08:47:43;;;;;;;3.35;3.05;;;;;;;20.57;nan;95485.00;5016075;28;20289;-75
2022/05/07 08:50:12;;;;;;;6.15;3.28;;;;;;;20.65;nan;95493.91;5015857;28;20757;-73
2022/05/07 08:52:41;;;;;;;4.80;3.20;;;;;;;20.23;nan;95483.78;5015935;28;20968;-75
2022/05/07 08:55:11;;;;;;;3.10;2.72;;;;;;;19.95;nan;95470.06;5014788;28;20317;-74
2022/05/07 08:57:39;;;;;;;4.28;2.97;;;;;;;20.20;nan;95489.97;5016444;28;20207;-73
2022/05/07 09:00:07;;;;;;;7.05;2.83;;;;;;;20.00;nan;95495.59;5015560;28;20318;-74
2022/05/07 09:02:39;;;;;;;5.43;3.35;;;;;;;19.10;nan;95500.31;5014284;28;20714;-72
2022/05/07 09:05:06;;;;;;;4.25;2.95;;;;;;;19.12;nan;95493.31;5014420;28;20692;-72
2022/05/07 09:07:33;;;;;;;5.82;3.92;;;;;;;19.17;nan;95502.44;5013212;28;20298;-74
2022/05/07 09:10:00;;;;;;;3.30;3.05;;;;;;;19.23;nan;95490.94;5014444;28;20207;-72
2022/05/07 09:12:29;;;;;;;4.15;3.35;;;;;;;19.16;nan;95484.47;5015429;28;20688;-72
2022/05/07 09:15:01;;;;;;;3.42;2.67;;;;;;;18.99;nan;95483.75;5015333;28;20200;-74
2022/05/07 09:17:28;;;;;;;4.65;3.00;;;;;;;19.30;nan;95485.28;5016277;28;20263;-72
2022/05/07 09:19:55;;;;;;;4.20;3.55;;;;;;;19.62;nan;95483.34;5015844;28;20203;-71
2022/05/07 09:22:23;;;;;;;5.90;3.33;;;;;;;19.49;nan;95487.59;5014128;28;20921;-72
2022/05/07 09:24:55;;;;;;;3.33;3.03;;;;;;;19.32;nan;95485.19;5016170;28;20633;-72
2022/05/07 09:27:22;;;;;;;3.97;3.67;;;;;;;19.06;nan;95473.88;5014422;28;20856;-73
2022/05/07 09:30:02;;;;;;;4.20;3.90;;;;;;;19.01;nan;95457.91;5016635;28;20231;-74
2022/05/07 09:32:36;;;;;;;9.07;4.80;;;;;;;19.33;nan;95456.75;5014968;28;20236;-72
2022/05/07 09:37:58;;;;;;;4.97;3.60;;;;;;;20.40;nan;95465.47;5016211;28;20234;-72
2022/05/07 09:40:25;;;;;;;4.13;2.97;;;;;;;20.69;nan;95460.97;5014975;28;20271;-72
2022/05/07 09:42:55;;;;;;;3.55;3.00;;;;;;;20.99;nan;95453.72;5015134;28;20293;-75
2022/05/07 09:45:25;;;;;;;6.20;3.03;;;;;;;21.18;nan;95462.78;5013972;28;20729;-75
2022/05/07 09:47:52;;;;;;;4.93;2.67;;;;;;;21.44;nan;95446.31;5015750;28;20204;-74
2022/05/07 09:50:24;;;;;;;8.00;2.70;;;;;;;21.11;nan;95440.88;5014968;28;21124;-74
2022/05/07 09:58:20;;;;;;;4.35;2.85;;;;;;;21.76;nan;95435.47;5015477;28;20230;-75
2022/05/07 10:00:58;;;;;;;6.95;3.90;;;;;;;21.86;nan;95436.44;5014593;28;20239;-73
2022/05/07 10:03:32;;;;;;;4.60;3.28;;;;;;;21.33;nan;95443.66;5015729;28;20211;-73
2022/05/07 10:06:21;;;;;;;4.55;4.00;;;;;;;21.28;nan;95433.63;5014710;28;20228;-73
2022/05/07 10:09:01;;;;;;;3.40;3.15;;;;;;;21.31;nan;95427.44;5015121;28;20204;-73
2022/05/07 10:11:28;;;;;;;3.90;3.58;;;;;;;21.81;nan;95426.41;5013869;28;20203;-72
2022/05/07 10:13:57;;;;;;;3.65;2.70;;;;;;;21.52;nan;95419.94;5014733;28;20362;-73
2022/05/07 10:16:30;;;;;;;4.35;2.90;;;;;;;21.50;nan;95422.63;5012471;28;20231;-72
2022/05/07 10:18:57;;;;;;;3.22;2.72;;;;;;;21.67;nan;95411.06;5013860;28;20854;-72
2022/05/07 10:21:24;;;;;;;3.75;3.33;;;;;;;21.81;nan;95412.66;5013303;28;20290;-76
2022/05/07 10:23:55;;;;;;;2.90;2.70;;;;;;;21.84;nan;95409.84;5014624;28;20764;-76
2022/05/07 10:26:24;;;;;;;2.85;2.65;;;;;;;21.37;nan;95411.50;5013097;28;20235;-76
2022/05/07 10:28:52;;;;;;;4.10;2.30;;;;;;;21.15;nan;95411.31;5014397;28;20196;-75
2022/05/07 10:31:21;;;;;;;2.55;2.15;;;;;;;21.22;nan;95402.22;5013303;28;20449;-75
2022/05/07 10:33:49;;;;;;;2.20;2.10;;;;;;;21.14;nan;95414.81;5016855;28;20671;-75
2022/05/07 10:36:17;;;;;;;2.40;2.20;;;;;;;20.81;nan;95408.47;5013623;28;20285;-75
2022/05/07 10:38:46;;;;;;;4.05;3.75;;;;;;;20.63;nan;95410.53;5013763;28;20215;-77
2022/05/07 10:41:24;;;;;;;3.10;2.90;;;;;;;20.69;nan;95411.88;5014327;28;20195;-73
2022/05/07 10:44:02;;;;;;;4.65;3.20;;;;;;;20.96;nan;95404.84;5013700;28;20286;-72
2022/05/07 10:46:39;;;;;;;3.67;3.20;;;;;;;21.18;nan;95400.75;5016008;28;20243;-71
2022/05/07 10:49:07;;;;;;;6.40;3.95;;;;;;;21.53;nan;95401.69;5014977;28;20207;-74
2022/05/07 10:51:36;;;;;;;4.35;3.25;;;;;;;21.43;nan;95395.56;5012478;28;20978;-71
2022/05/07 10:54:15;;;;;;;3.60;3.30;;;;;;;21.01;nan;95395.03;5013078;28;20570;-72
2022/05/07 10:56:47;;;;;;;3.08;2.88;;;;;;;21.20;nan;95393.72;5011752;28;20196;-72
2022/05/07 10:59:14;;;;;;;27.17;4.45;;;;;;;20.68;nan;95398.16;5014374;28;20200;-71
2022/05/07 11:01:42;;;;;;;6.05;4.32;;;;;;;20.26;nan;95390.69;5014612;28;21213;-71
2022/05/07 11:04:13;;;;;;;2.72;2.53;;;;;;;20.24;nan;95388.19;5014097;28;20243;-74
2022/05/07 11:06:48;;;;;;;7.78;3.42;;;;;;;20.33;nan;95387.56;5015863;28;20225;-71
2022/05/07 11:09:16;;;;;;;4.68;3.72;;;;;;;20.14;nan;95387.16;5017343;28;20240;-72
2022/05/07 11:11:45;;;;;;;6.65;4.63;;;;;;;20.39;nan;95378.63;5017556;28;20267;-72
2022/05/07 11:14:22;;;;;;;5.28;3.60;;;;;;;20.28;nan;95381.91;5019430;28;20208;-74
2022/05/07 11:16:49;;;;;;;4.40;4.00;;;;;;;20.21;nan;95383.25;5017201;28;20239;-72
2022/05/07 11:19:28;;;;;;;4.43;4.03;;;;;;;20.34;nan;95368.56;5017181;28;20556;-72
2022/05/07 11:21:57;;;;;;;7.25;2.80;;;;;;;20.31;nan;95363.63;5017212;28;20254;-72
2022/05/07 11:24:25;;;;;;;3.30;3.10;;;;;;;20.53;nan;95375.13;5017822;28;20325;-73
2022/05/07 11:26:53;;;;;;;4.85;2.33;;;;;;;20.76;nan;95368.41;5017133;28;20231;-71
2022/05/07 11:29:21;;;;;;;3.75;2.95;;;;;;;20.60;nan;95368.59;5016590;28;20200;-70
2022/05/07 11:31:55;;;;;;;5.13;3.38;;;;;;;20.73;nan;95356.50;5017140;28;20690;-71
2022/05/07 11:34:31;;;;;;;6.70;3.25;;;;;;;21.06;nan;95372.25;5018032;28;20315;-72
2022/05/07 11:37:09;;;;;;;3.90;2.42;;;;;;;21.04;nan;95363.78;5016548;28;20204;-72
2022/05/07 11:39:46;;;;;;;4.80;3.47;;;;;;;21.09;nan;95365.22;5017633;28;20317;-72
2022/05/07 11:42:25;;;;;;;5.43;1.90;;;;;;;21.08;nan;95368.72;5016784;28;20253;-71
2022/05/07 11:47:37;;;;;;;3.83;2.80;;;;;;;21.10;nan;95347.00;5016723;28;20281;-75
2022/05/07 11:50:06;;;;;;;4.35;3.45;;;;;;;21.14;nan;95345.03;5017591;28;20196;-73
2022/05/07 11:52:33;;;;;;;3.03;2.83;;;;;;;20.98;nan;95335.81;5016159;28;20313;-73
2022/05/07 11:55:05;;;;;;;6.22;2.60;;;;;;;21.20;nan;95336.88;5016549;28;20289;-72
2022/05/07 11:57:33;;;;;;;2.10;1.90;;;;;;;20.83;nan;95338.59;5016426;28;20655;-74
2022/05/07 12:00:14;;;;;;;2.78;2.58;;;;;;;20.89;nan;95328.69;5016845;28;20215;-72
2022/05/07 12:02:41;;;;;;;2.25;2.05;;;;;;;20.96;nan;95337.66;5016271;28;20200;-72
2022/05/07 12:05:09;;;;;;;3.40;2.60;;;;;;;20.95;nan;95337.78;5017490;28;20231;-71
2022/05/07 12:07:42;;;;;;;3.50;2.35;;;;;;;20.97;nan;95326.41;5017686;28;20705;-72
2022/05/07 12:10:09;;;;;;;2.90;2.53;;;;;;;21.02;nan;95324.31;5016941;28;20199;-72
2022/05/07 12:12:36;;;;;;;3.65;3.42;;;;;;;20.96;nan;95323.91;5015837;28;20265;-72
2022/05/07 12:15:04;;;;;;;3.45;3.22;;;;;;;20.99;nan;95326.28;5018372;28;20204;-73
2022/05/07 12:20:16;;;;;;;2.55;2.22;;;;;;;21.06;nan;95332.66;5016777;28;20214;-73
2022/05/07 12:30:55;;;;;;;5.43;2.85;;;;;;;20.86;nan;95326.31;5015559;28;20645;-73
2022/05/07 12:33:21;;;;;;;6.07;2.60;;;;;;;21.11;nan;95327.16;5016709;28;20204;-72
2022/05/07 12:35:50;;;;;;;3.03;2.28;;;;;;;21.00;nan;95321.00;5015359;28;20290;-70
2022/05/07 12:38:17;;;;;;;4.57;4.05;;;;;;;20.90;nan;95319.19;5015956;28;20239;-69